Time;durP1;ratioP1;P1;durP2;ratioP2;P2;SDS_P1;SDS_P2;PMS_P1;PMS_P2;Temp;Humidity;BMP_temperature;BMP_pressure;BME280_temperature;BME280_humidity;BME280_pressure;Samples;Min_cycle;Max_cycle;Signal;HPM_P1;HPM_P2
2022/07/21 00:00:38;;;;;;;10.05;5.70;;;20.70;99.90;;;;;;6187261;23;20438;-72
2022/07/21 00:03:04;;;;;;;9.93;5.78;;;20.60;99.90;;;;;;6183252;23;20047;-75
2022/07/21 00:05:30;;;;;;;12.77;5.97;;;20.60;99.90;;;;;;6208693;23;20153;-75
2022/07/21 00:07:56;;;;;;;8.00;5.43;;;20.50;99.90;;;;;;6208500;23;20338;-75
2022/07/21 00:10:24;;;;;;;9.15;5.28;;;20.60;99.90;;;;;;6208721;23;20017;-76
2022/07/21 00:12:50;;;;;;;8.20;5.22;;;20.50;99.90;;;;;;6157695;23;20016;-75
2022/07/21 00:15:18;;;;;;;10.10;5.50;;;20.50;99.90;;;;;;6207368;23;20594;-75
2022/07/21 00:17:44;;;;;;;6.35;4.70;;;20.50;99.90;;;;;;6207270;23;20291;-76
2022/07/21 00:20:11;;;;;;;7.68;4.53;;;20.50;99.90;;;;;;6183995;23;20047;-79
2022/07/21 00:22:37;;;;;;;8.20;5.05;;;20.50;99.90;;;;;;6208020;23;20071;-75
2022/07/21 00:25:05;;;;;;;9.82;5.15;;;20.50;99.90;;;;;;6209493;23;20015;-74
2022/07/21 00:27:31;;;;;;;11.10;5.35;;;20.50;99.90;;;;;;6183210;23;20020;-78
2022/07/21 00:29:57;;;;;;;7.15;4.70;;;20.50;99.90;;;;;;6209319;23;20524;-78
2022/07/21 00:32:23;;;;;;;8.02;4.80;;;20.50;99.90;;;;;;6183236;23;20546;-76
2022/07/21 00:34:49;;;;;;;10.00;5.22;;;20.60;99.90;;;;;;6184376;23;20055;-72
2022/07/21 00:37:14;;;;;;;6.90;4.78;;;20.60;99.90;;;;;;6157365;23;20464;-74
2022/07/21 00:39:40;;;;;;;10.80;5.15;;;20.60;99.90;;;;;;6181765;23;20159;-75
2022/07/21 00:42:06;;;;;;;10.68;5.78;;;20.60;99.90;;;;;;6208527;23;20021;-77
2022/07/21 00:44:32;;;;;;;9.85;5.68;;;20.50;99.90;;;;;;6185765;23;20017;-74
2022/07/21 00:46:58;;;;;;;8.25;5.22;;;20.40;99.90;;;;;;6184656;23;20013;-75
2022/07/21 00:49:24;;;;;;;8.07;5.90;;;20.40;99.90;;;;;;6211037;23;20433;-77
2022/07/21 00:51:51;;;;;;;8.38;5.93;;;20.30;99.90;;;;;;6185570;23;20071;-74
2022/07/21 00:54:18;;;;;;;7.53;5.43;;;20.30;99.90;;;;;;6185779;23;20035;-74
2022/07/21 00:56:45;;;;;;;9.60;5.68;;;20.30;99.90;;;;;;6208607;23;20016;-74
2022/07/21 00:59:11;;;;;;;7.18;6.07;;;20.40;99.90;;;;;;6209642;23;20058;-71
2022/07/21 01:01:38;;;;;;;10.73;6.97;;;20.40;99.90;;;;;;6211194;23;20031;-75
2022/07/21 01:04:03;;;;;;;12.02;7.05;;;20.30;99.90;;;;;;6210077;23;20125;-75
2022/07/21 01:06:29;;;;;;;14.40;8.15;;;20.20;99.90;;;;;;6184124;23;20012;-77
2022/07/21 01:08:56;;;;;;;13.63;8.40;;;20.20;99.90;;;;;;6211455;23;20019;-81
2022/07/21 01:11:24;;;;;;;15.38;8.40;;;20.10;99.90;;;;;;6161821;23;20016;-79
2022/07/21 01:13:50;;;;;;;9.90;8.63;;;20.10;99.90;;;;;;6186185;23;20016;-78
2022/07/21 01:16:16;;;;;;;13.63;9.40;;;20.10;99.90;;;;;;6211426;23;20131;-81
2022/07/21 01:18:42;;;;;;;9.73;8.38;;;19.90;99.90;;;;;;6211078;23;20016;-81
2022/07/21 01:21:37;;;;;;;15.32;9.05;;;19.90;99.90;;;;;;6186735;23;20016;-82
2022/07/21 01:24:07;;;;;;;14.70;9.38;;;19.80;99.90;;;;;;6186572;23;20063;-81
2022/07/21 01:26:56;;;;;;;12.55;9.75;;;19.90;99.90;;;;;;6187791;23;20020;-84
2022/07/21 01:29:24;;;;;;;13.00;9.65;;;20.00;99.90;;;;;;6170365;23;20463;-83
2022/07/21 01:31:50;;;;;;;16.67;10.85;;;19.70;99.90;;;;;;6159924;23;20067;-83
2022/07/21 01:34:20;;;;;;;12.95;8.57;;;19.90;99.90;;;;;;6160657;23;20017;-84
2022/07/21 01:44:25;;;;;;;17.17;10.57;;;20.00;99.90;;;;;;6214503;23;20024;-86
2022/07/21 01:47:06;;;;;;;13.55;10.55;;;20.00;99.90;;;;;;6165181;23;20023;-85
2022/07/21 01:49:51;;;;;;;12.20;9.40;;;19.60;99.90;;;;;;6188252;23;20008;-85
2022/07/21 01:53:02;;;;;;;14.40;9.52;;;20.00;99.90;;;;;;6185977;23;20430;-85
2022/07/21 01:55:36;;;;;;;14.93;10.35;;;20.20;99.90;;;;;;6195427;23;20012;-87
2022/07/21 01:58:44;;;;;;;16.05;11.48;;;19.90;99.90;;;;;;6188494;23;20114;-86
2022/07/21 02:01:46;;;;;;;16.60;11.65;;;20.20;99.90;;;;;;6151820;23;20045;-88
2022/07/21 02:04:12;;;;;;;17.00;11.45;;;20.00;99.90;;;;;;6127333;23;20100;-88
2022/07/21 02:06:38;;;;;;;15.65;11.20;;;20.10;99.90;;;;;;6122829;23;20478;-85
2022/07/21 02:09:04;;;;;;;16.20;11.13;;;19.90;99.90;;;;;;6187519;23;20048;-89
2022/07/21 02:11:29;;;;;;;18.30;11.80;;;19.80;99.90;;;;;;6162333;23;20016;-85
2022/07/21 02:13:57;;;;;;;15.45;10.82;;;20.10;99.90;;;;;;6187899;23;20055;-86
2022/07/21 02:16:23;;;;;;;15.25;11.73;;;19.80;99.90;;;;;;6161952;23;20032;-87
2022/07/21 02:18:48;;;;;;;16.60;11.98;;;20.20;99.90;;;;;;6161404;23;20052;-83
2022/07/21 02:21:14;;;;;;;19.15;12.50;;;19.70;99.90;;;;;;6135343;23;20740;-87
2022/07/21 02:23:40;;;;;;;18.20;12.48;;;19.80;99.90;;;;;;6161045;23;20103;-86
2022/07/21 02:26:06;;;;;;;22.20;13.30;;;19.90;99.90;;;;;;6161480;23;20100;-80
2022/07/21 02:28:31;;;;;;;17.77;13.07;;;19.60;99.90;;;;;;6161513;23;20086;-81
2022/07/21 02:30:57;;;;;;;17.30;12.55;;;19.50;99.90;;;;;;6162144;23;20009;-81
2022/07/21 02:33:23;;;;;;;19.30;11.95;;;19.60;99.90;;;;;;6136629;23;20020;-82
2022/07/21 02:35:48;;;;;;;16.05;11.85;;;19.50;99.90;;;;;;6137772;23;20443;-81
2022/07/21 02:38:15;;;;;;;19.05;13.02;;;19.70;99.90;;;;;;6186647;23;20018;-82
2022/07/21 02:40:41;;;;;;;16.88;12.70;;;19.60;99.90;;;;;;6162665;23;20013;-82
2022/07/21 02:43:07;;;;;;;19.75;12.48;;;20.10;99.90;;;;;;6185586;23;20024;-84
2022/07/21 02:45:33;;;;;;;14.95;11.85;;;19.50;99.90;;;;;;6161358;23;20330;-82
2022/07/21 02:48:02;;;;;;;14.77;11.32;;;19.80;99.90;;;;;;6137025;23;20515;-81
2022/07/21 02:50:31;;;;;;;16.55;12.38;;;20.00;99.90;;;;;;6162089;23;20643;-81
2022/07/21 02:53:22;;;;;;;16.63;11.77;;;19.50;99.90;;;;;;6161470;23;20066;-80
2022/07/21 02:55:49;;;;;;;15.05;11.20;;;20.30;99.90;;;;;;6186117;23;20012;-84
2022/07/21 02:58:27;;;;;;;14.70;11.27;;;19.50;99.90;;;;;;6137441;23;20400;-82
2022/07/21 03:00:56;;;;;;;18.38;11.63;;;19.70;99.90;;;;;;6132566;23;20028;-81
2022/07/21 03:03:23;;;;;;;14.05;10.68;;;20.30;99.90;;;;;;6155857;23;20021;-79
2022/07/21 03:05:49;;;;;;;15.27;11.23;;;20.40;99.90;;;;;;6134335;23;20589;-81
2022/07/21 03:08:16;;;;;;;12.88;11.50;;;19.80;99.90;;;;;;6133320;23;20024;-79
2022/07/21 03:10:42;;;;;;;15.52;11.93;;;19.70;99.90;;;;;;6158239;23;20025;-81
2022/07/21 03:13:08;;;;;;;16.40;12.40;;;19.70;99.90;;;;;;6157813;23;20770;-82
2022/07/21 03:15:34;;;;;;;16.90;12.82;;;19.70;99.90;;;;;;6134121;23;20017;-77
2022/07/21 03:18:00;;;;;;;18.05;13.43;;;20.70;99.90;;;;;;6134183;23;20052;-79
2022/07/21 03:20:28;;;;;;;18.08;13.55;;;20.50;99.90;;;;;;6133989;23;20023;-81
2022/07/21 03:22:54;;;;;;;19.92;13.57;;;20.70;99.90;;;;;;6132730;23;20052;-80
2022/07/21 03:25:21;;;;;;;21.17;14.32;;;20.50;99.90;;;;;;6132162;23;20013;-80
2022/07/21 03:27:48;;;;;;;20.92;13.68;;;20.10;99.90;;;;;;6132958;23;20330;-80
2022/07/21 03:30:14;;;;;;;17.50;13.45;;;21.00;99.90;;;;;;6158146;23;20335;-79
2022/07/21 03:32:40;;;;;;;20.23;15.27;;;21.00;99.90;;;;;;6131904;23;20037;-80
2022/07/21 03:35:09;;;;;;;17.40;15.00;;;21.20;99.90;;;;;;6107888;23;20091;-82
2022/07/21 03:37:44;;;;;;;17.70;14.65;;;20.30;99.90;;;;;;6133166;23;20044;-84
2022/07/21 03:40:12;;;;;;;20.92;15.32;;;21.30;99.90;;;;;;6131433;23;20009;-84
2022/07/21 03:42:38;;;;;;;21.85;15.90;;;20.60;99.90;;;;;;6156862;23;20382;-85
2022/07/21 03:45:04;;;;;;;22.20;16.38;;;20.80;99.90;;;;;;6131781;23;20013;-81
2022/07/21 03:47:30;;;;;;;17.27;14.88;;;20.30;99.90;;;;;;6132440;23;20013;-83
2022/07/21 03:49:56;;;;;;;19.10;16.42;;;20.30;99.90;;;;;;6133421;23;20012;-82
2022/07/21 03:52:22;;;;;;;27.20;17.25;;;21.20;99.90;;;;;;6107822;23;20013;-82
2022/07/21 03:54:48;;;;;;;24.05;16.45;;;21.20;99.90;;;;;;6108429;23;20016;-82
2022/07/21 03:57:13;;;;;;;24.50;16.85;;;21.30;99.90;;;;;;6108660;23;20379;-81
2022/07/21 03:59:39;;;;;;;23.70;18.02;;;20.80;99.90;;;;;;6173066;23;20016;-82
2022/07/21 04:02:05;;;;;;;26.75;18.42;;;20.60;99.90;;;;;;6137333;23;20447;-81
2022/07/21 04:04:31;;;;;;;26.92;18.60;;;21.40;99.90;;;;;;6162569;23;20385;-81
2022/07/21 04:06:56;;;;;;;24.38;18.13;;;21.10;99.90;;;;;;6162331;23;20032;-79
2022/07/21 04:09:22;;;;;;;25.58;18.60;;;20.60;99.90;;;;;;6137654;23;20009;-82
2022/07/21 04:11:48;;;;;;;23.85;17.13;;;21.70;99.90;;;;;;6186826;23;20016;-83
2022/07/21 04:14:13;;;;;;;17.88;15.63;;;21.80;99.90;;;;;;6162145;23;20008;-81
2022/07/21 04:16:39;;;;;;;19.45;15.00;;;21.00;99.90;;;;;;6163304;23;20020;-81
2022/07/21 04:19:05;;;;;;;18.23;14.77;;;21.20;99.90;;;;;;6163114;23;20075;-82
2022/07/21 04:21:31;;;;;;;22.00;16.02;;;20.50;99.90;;;;;;6187760;23;20020;-81
2022/07/21 04:23:56;;;;;;;19.25;14.70;;;20.60;99.90;;;;;;6162805;23;20374;-83
2022/07/21 04:26:22;;;;;;;20.67;16.25;;;21.10;99.90;;;;;;6138119;23;20013;-79
2022/07/21 04:28:48;;;;;;;19.42;14.32;;;22.10;99.90;;;;;;6138433;23;20346;-80
2022/07/21 04:31:13;;;;;;;21.38;16.08;;;21.10;99.90;;;;;;6138621;23;20020;-81
2022/07/21 04:33:39;;;;;;;18.05;14.45;;;20.80;99.90;;;;;;6163235;23;20075;-83
2022/07/21 04:36:05;;;;;;;18.75;14.95;;;22.10;99.90;;;;;;6186534;23;20016;-80
2022/07/21 04:38:31;;;;;;;22.90;17.42;;;22.30;99.90;;;;;;6138011;23;20059;-80
2022/07/21 04:40:56;;;;;;;21.90;17.58;;;21.40;99.90;;;;;;6138831;23;20384;-80
2022/07/21 04:43:22;;;;;;;20.08;16.30;;;21.10;99.90;;;;;;6137752;23;20024;-81
2022/07/21 04:45:48;;;;;;;24.42;18.15;;;21.50;99.90;;;;;;6138644;23;20013;-84
2022/07/21 04:48:13;;;;;;;21.40;16.88;;;21.80;99.90;;;;;;6161695;23;20039;-81
2022/07/21 04:50:39;;;;;;;23.08;17.15;;;22.60;99.90;;;;;;6135866;23;20366;-80
2022/07/21 04:53:05;;;;;;;17.45;15.20;;;22.80;99.90;;;;;;6162626;23;20160;-82
2022/07/21 04:55:30;;;;;;;22.50;16.67;;;21.60;99.90;;;;;;6136524;23;20028;-81
2022/07/21 04:57:58;;;;;;;20.10;15.90;;;22.50;99.90;;;;;;6138343;23;20418;-83
2022/07/21 05:00:30;;;;;;;20.70;15.52;;;22.70;99.90;;;;;;6163838;23;20059;-82
2022/07/21 05:02:56;;;;;;;22.83;16.13;;;22.10;99.90;;;;;;6138289;23;20016;-81
2022/07/21 05:05:23;;;;;;;21.77;16.65;;;21.80;99.90;;;;;;6137820;23;20341;-83
2022/07/21 05:07:49;;;;;;;26.23;18.88;;;22.20;99.90;;;;;;6187602;23;20013;-83
2022/07/21 05:10:18;;;;;;;26.55;19.13;;;23.30;99.90;;;;;;6187247;23;20008;-82
2022/07/21 05:12:44;;;;;;;23.35;18.42;;;23.10;99.90;;;;;;6138992;23;20012;-80
2022/07/21 05:15:12;;;;;;;25.30;19.88;;;23.10;99.90;;;;;;6162286;23;20016;-81
2022/07/21 05:17:38;;;;;;;28.98;20.45;;;22.90;99.90;;;;;;6161567;23;20091;-83
2022/07/21 05:20:05;;;;;;;26.23;19.77;;;22.50;99.90;;;;;;6138114;23;20008;-81
2022/07/21 05:22:31;;;;;;;24.90;19.75;;;22.10;99.90;;;;;;6138392;23;20012;-81
2022/07/21 05:24:58;;;;;;;29.60;22.98;;;22.90;99.90;;;;;;6187733;23;20055;-82
2022/07/21 05:27:23;;;;;;;31.95;24.10;;;22.90;99.90;;;;;;6137280;23;20008;-82
2022/07/21 05:29:49;;;;;;;30.88;23.85;;;23.20;99.90;;;;;;6161959;23;20630;-82
2022/07/21 05:32:15;;;;;;;33.10;25.40;;;22.40;99.90;;;;;;6162956;23;20097;-81
2022/07/21 05:34:41;;;;;;;34.55;25.08;;;23.60;99.90;;;;;;6162645;23;20027;-81
2022/07/21 05:37:06;;;;;;;32.22;24.15;;;22.70;99.90;;;;;;6137881;23;20100;-83
2022/07/21 05:39:32;;;;;;;29.42;24.90;;;22.80;99.90;;;;;;6162103;23;20063;-83
2022/07/21 05:41:58;;;;;;;33.50;26.73;;;23.20;99.90;;;;;;6138611;23;20017;-81
2022/07/21 05:44:24;;;;;;;33.20;25.70;;;23.80;99.90;;;;;;6138193;23;20016;-82
2022/07/21 05:46:49;;;;;;;27.98;23.38;;;23.80;99.90;;;;;;6138501;23;20341;-85
2022/07/21 05:49:15;;;;;;;32.22;23.60;;;23.90;99.90;;;;;;6137636;23;20012;-81
2022/07/21 05:51:41;;;;;;;31.90;25.73;;;22.90;99.90;;;;;;6137809;23;20020;-85
2022/07/21 05:54:06;;;;;;;29.35;24.92;;;22.80;99.90;;;;;;6138296;23;20020;-82
2022/07/21 05:56:32;;;;;;;28.98;25.10;;;23.90;99.90;;;;;;6137424;23;20460;-83
2022/07/21 05:58:58;;;;;;;29.73;26.02;;;23.20;99.90;;;;;;6138033;23;20017;-84
2022/07/21 06:01:24;;;;;;;29.25;24.50;;;23.10;99.90;;;;;;6137859;23;20052;-81
2022/07/21 06:03:51;;;;;;;31.38;25.35;;;23.00;99.90;;;;;;6137965;23;20017;-82
2022/07/21 06:06:18;;;;;;;29.38;24.27;;;22.70;99.90;;;;;;6162479;23;20025;-82
2022/07/21 06:08:46;;;;;;;24.55;21.35;;;22.40;99.90;;;;;;6163096;23;20044;-82
2022/07/21 06:11:16;;;;;;;25.02;22.27;;;23.00;99.90;;;;;;6137879;23;20009;-83
2022/07/21 06:13:42;;;;;;;28.95;23.70;;;23.30;99.90;;;;;;6187765;23;20044;-83
2022/07/21 06:16:09;;;;;;;27.42;23.33;;;22.90;99.90;;;;;;6187396;23;20067;-83
2022/07/21 06:18:34;;;;;;;28.65;23.35;;;23.20;99.90;;;;;;6137902;23;20373;-84
2022/07/21 06:21:01;;;;;;;25.75;23.10;;;22.70;99.90;;;;;;6138208;23;20013;-84
2022/07/21 06:23:27;;;;;;;27.25;23.02;;;23.60;99.90;;;;;;6162581;23;20023;-84
2022/07/21 06:25:54;;;;;;;25.83;22.88;;;23.50;99.90;;;;;;6187775;23;20087;-83
2022/07/21 06:28:20;;;;;;;26.15;22.92;;;22.70;99.90;;;;;;6187381;23;20334;-83
2022/07/21 06:30:47;;;;;;;24.02;20.75;;;23.30;99.90;;;;;;6162459;23;20008;-81
2022/07/21 06:33:12;;;;;;;26.40;23.35;;;22.10;99.90;;;;;;6159862;23;20019;-83
2022/07/21 06:35:38;;;;;;;24.15;21.55;;;22.70;99.90;;;;;;6162421;23;20012;-84
2022/07/21 06:38:04;;;;;;;25.00;22.40;;;22.50;99.90;;;;;;6163459;23;20464;-85
2022/07/21 06:40:30;;;;;;;25.77;22.98;;;22.50;99.90;;;;;;6164331;23;20047;-83
2022/07/21 06:42:56;;;;;;;27.27;24.33;;;22.10;99.90;;;;;;6164598;23;20071;-84
2022/07/21 06:45:23;;;;;;;25.58;22.83;;;22.80;99.90;;;;;;6139972;23;20009;-83
2022/07/21 06:47:49;;;;;;;28.63;25.50;;;22.10;99.90;;;;;;6164936;23;20012;-83
2022/07/21 06:50:15;;;;;;;23.83;21.27;;;22.60;99.90;;;;;;6137998;23;20471;-84
2022/07/21 06:52:41;;;;;;;24.88;22.20;;;21.70;99.90;;;;;;6137760;23;20031;-82
2022/07/21 06:55:08;;;;;;;26.15;23.45;;;21.50;99.90;;;;;;6139561;23;20009;-80
2022/07/21 06:57:34;;;;;;;25.92;23.15;;;22.10;99.90;;;;;;6139480;23;20055;-81
2022/07/21 07:00:01;;;;;;;24.75;21.88;;;21.50;99.90;;;;;;6163952;23;20092;-85
2022/07/21 07:02:26;;;;;;;24.90;22.30;;;22.10;99.90;;;;;;6138620;23;20052;-85
2022/07/21 07:04:52;;;;;;;25.98;23.27;;;21.90;99.90;;;;;;6139622;23;20660;-83
2022/07/21 07:07:18;;;;;;;25.33;22.63;;;21.40;99.90;;;;;;6164605;23;20015;-83
2022/07/21 07:09:43;;;;;;;26.05;23.45;;;21.30;99.90;;;;;;6139176;23;20770;-82
2022/07/21 07:12:09;;;;;;;25.48;22.80;;;21.30;99.90;;;;;;6187764;23;20015;-80
2022/07/21 07:14:36;;;;;;;26.08;23.27;;;21.60;99.90;;;;;;6163204;23;20393;-82
2022/07/21 07:17:03;;;;;;;26.38;23.55;;;21.20;99.90;;;;;;6163335;23;20020;-80
2022/07/21 07:19:29;;;;;;;26.45;23.63;;;21.20;99.90;;;;;;6163260;23;20016;-80
2022/07/21 07:28:28;;;;;;;25.55;22.58;;;21.50;99.90;;;;;;6165259;23;20021;-79
2022/07/21 07:30:54;;;;;;;25.80;22.70;;;20.90;99.90;;;;;;6140546;23;20044;-81
2022/07/21 07:33:21;;;;;;;27.02;24.23;;;21.00;99.90;;;;;;6116572;23;20243;-81
2022/07/21 07:35:47;;;;;;;27.58;23.10;;;21.10;99.90;;;;;;6093276;23;20013;-83
2022/07/21 07:38:14;;;;;;;26.15;23.23;;;21.50;99.90;;;;;;6089991;23;20244;-84
2022/07/21 07:40:40;;;;;;;26.23;22.90;;;21.60;99.90;;;;;;6115354;23;20261;-84
2022/07/21 07:43:07;;;;;;;24.50;21.90;;;21.50;99.90;;;;;;6091121;23;20023;-83
2022/07/21 07:45:36;;;;;;;26.92;24.02;;;21.00;99.90;;;;;;6091553;23;20199;-83
2022/07/21 07:48:02;;;;;;;27.15;24.27;;;20.90;99.90;;;;;;6138821;23;20299;-82
2022/07/21 07:50:30;;;;;;;27.20;24.30;;;21.00;99.90;;;;;;6091654;23;20009;-83
2022/07/21 07:52:56;;;;;;;27.45;24.65;;;21.20;99.90;;;;;;6115167;23;20017;-82
2022/07/21 07:55:21;;;;;;;25.55;22.90;;;20.90;99.90;;;;;;6091440;23;20223;-83
2022/07/21 07:57:47;;;;;;;27.33;22.98;;;21.10;99.90;;;;;;6115276;23;20010;-82
2022/07/21 08:00:16;;;;;;;25.60;22.90;;;20.70;99.90;;;;;;6091243;23;20009;-82
2022/07/21 08:02:42;;;;;;;25.13;22.45;;;20.90;99.90;;;;;;6114998;23;20009;-82
2022/07/21 08:05:08;;;;;;;25.48;22.08;;;21.20;99.90;;;;;;6139174;23;20064;-82
2022/07/21 08:07:39;;;;;;;25.50;22.83;;;21.20;99.90;;;;;;6138592;23;20040;-78
2022/07/21 08:10:11;;;;;;;25.92;23.17;;;21.70;99.90;;;;;;6163143;23;20009;-78
2022/07/21 08:12:40;;;;;;;26.80;23.50;;;21.10;99.90;;;;;;6114403;23;20018;-82
2022/07/21 08:15:11;;;;;;;26.35;23.60;;;21.00;99.90;;;;;;6115017;23;20088;-84
2022/07/21 08:17:37;;;;;;;26.83;24.00;;;21.10;99.90;;;;;;6114942;23;20517;-83
2022/07/21 08:20:04;;;;;;;24.92;22.38;;;21.00;99.90;;;;;;6139270;23;20068;-85
2022/07/21 08:22:30;;;;;;;26.58;23.77;;;20.90;99.90;;;;;;6139086;23;20013;-80
2022/07/21 08:25:02;;;;;;;26.70;23.58;;;21.00;99.90;;;;;;6138881;23;20087;-81
2022/07/21 08:27:28;;;;;;;25.98;23.08;;;21.50;99.90;;;;;;6155760;23;20047;-81
2022/07/21 08:29:54;;;;;;;24.63;22.05;;;21.20;99.90;;;;;;6143715;23;20017;-83
2022/07/21 08:32:20;;;;;;;23.98;21.48;;;21.20;99.90;;;;;;6144272;23;20009;-82
2022/07/21 08:34:46;;;;;;;23.55;20.73;;;21.40;99.90;;;;;;6169028;23;20012;-84
2022/07/21 08:37:12;;;;;;;25.20;21.85;;;21.20;99.90;;;;;;6168355;23;20116;-82
2022/07/21 08:39:41;;;;;;;23.65;21.15;;;21.30;99.90;;;;;;6144653;23;20184;-81
2022/07/21 08:42:08;;;;;;;24.67;22.05;;;21.40;99.90;;;;;;6096492;23;20349;-83
2022/07/21 08:44:34;;;;;;;24.90;21.27;;;21.10;99.90;;;;;;6143788;23;20013;-81
2022/07/21 08:47:00;;;;;;;22.17;19.85;;;20.80;99.90;;;;;;6144521;23;20330;-81
2022/07/21 08:49:28;;;;;;;24.33;21.83;;;21.10;99.90;;;;;;6144097;23;20317;-82
2022/07/21 08:51:56;;;;;;;21.05;18.83;;;21.30;99.90;;;;;;6120253;23;20009;-81
2022/07/21 08:54:22;;;;;;;24.10;21.48;;;20.60;99.90;;;;;;6144074;23;20040;-82
2022/07/21 08:56:57;;;;;;;25.10;21.35;;;21.10;99.90;;;;;;6119611;23;20013;-83
2022/07/21 08:59:23;;;;;;;23.42;20.02;;;21.10;99.90;;;;;;6144030;23;20012;-83
2022/07/21 09:01:49;;;;;;;23.63;20.15;;;21.20;99.90;;;;;;6095767;23;20176;-82
2022/07/21 09:04:26;;;;;;;22.63;20.23;;;21.30;99.90;;;;;;6144107;23;20059;-82
2022/07/21 09:06:56;;;;;;;21.02;18.73;;;21.30;99.90;;;;;;6168582;23;20063;-82
2022/07/21 09:09:23;;;;;;;23.10;20.70;;;21.00;99.90;;;;;;6137019;23;20060;-82
2022/07/21 09:11:49;;;;;;;22.48;20.08;;;21.30;99.90;;;;;;6140234;23;20456;-82
2022/07/21 09:14:21;;;;;;;24.10;21.02;;;21.30;99.90;;;;;;6143699;23;20013;-79
2022/07/21 09:16:58;;;;;;;23.70;20.30;;;22.10;99.90;;;;;;6143728;23;20012;-79
2022/07/21 09:19:24;;;;;;;21.90;19.63;;;22.40;99.90;;;;;;6143973;23;20029;-81
2022/07/21 09:21:52;;;;;;;22.00;19.42;;;22.60;99.90;;;;;;6143777;23;20013;-83
2022/07/21 09:24:25;;;;;;;21.80;18.65;;;22.70;99.90;;;;;;6143344;23;20199;-81
2022/07/21 09:27:03;;;;;;;20.65;18.45;;;23.00;99.90;;;;;;6142661;23;20180;-85
2022/07/21 09:29:53;;;;;;;21.52;18.10;;;23.00;99.90;;;;;;6168090;23;20044;-82
2022/07/21 09:32:31;;;;;;;19.95;17.48;;;23.20;99.90;;;;;;6168241;23;20060;-84
2022/07/21 09:35:05;;;;;;;19.08;17.27;;;23.70;99.90;;;;;;6167742;23;20231;-82
2022/07/21 09:37:35;;;;;;;19.88;17.83;;;23.60;99.90;;;;;;6168169;23;20047;-82
2022/07/21 09:40:08;;;;;;;19.77;17.80;;;24.10;99.90;;;;;;6168118;23;20060;-83
2022/07/21 09:42:38;;;;;;;20.25;18.15;;;24.10;99.90;;;;;;6143709;23;20035;-83
2022/07/21 09:45:20;;;;;;;;;;;;;;;;;;;;;
2022/07/21 09:47:56;;;;;;;22.05;19.58;;;23.70;99.90;;;;;;6172349;23;20031;-82
2022/07/21 09:50:22;;;;;;;22.02;19.77;;;23.80;99.90;;;;;;6143140;23;20009;-82
2022/07/21 09:52:49;;;;;;;22.48;20.25;;;23.50;99.90;;;;;;6143607;23;20013;-83
2022/07/21 09:55:17;;;;;;;22.85;20.17;;;23.40;99.90;;;;;;6143723;23;20016;-82
2022/07/21 09:57:44;;;;;;;22.58;20.27;;;23.30;99.90;;;;;;6168262;23;20016;-82
2022/07/21 10:00:17;;;;;;;24.38;21.88;;;23.10;99.90;;;;;;6166428;23;20008;-83
2022/07/21 10:02:44;;;;;;;23.20;20.75;;;23.00;99.90;;;;;;6143315;23;20648;-82
2022/07/21 10:05:11;;;;;;;22.67;20.38;;;23.30;99.90;;;;;;6143060;23;20020;-85
2022/07/21 10:07:39;;;;;;;21.10;18.90;;;23.40;99.90;;;;;;6167909;23;20017;-84
2022/07/21 10:10:05;;;;;;;23.08;20.70;;;23.90;99.90;;;;;;6167902;23;20008;-84
2022/07/21 10:12:31;;;;;;;23.50;21.05;;;24.30;99.90;;;;;;6169490;23;20187;-82
2022/07/21 10:14:57;;;;;;;21.08;18.85;;;24.40;99.90;;;;;;6172821;23;20013;-84
2022/07/21 10:17:24;;;;;;;21.83;19.38;;;24.60;99.90;;;;;;6170204;23;20013;-81
2022/07/21 10:20:07;;;;;;;22.92;20.48;;;24.50;99.90;;;;;;6145488;23;20068;-80
2022/07/21 10:22:57;;;;;;;20.27;18.42;;;24.30;99.90;;;;;;6169626;23;20020;-81
2022/07/21 10:25:23;;;;;;;21.35;19.15;;;24.10;99.90;;;;;;6145298;23;20103;-79
2022/07/21 10:28:22;;;;;;;21.40;19.13;;;24.00;99.90;;;;;;6122826;23;20239;-80
2022/07/21 10:30:50;;;;;;;20.23;18.17;;;23.70;99.90;;;;;;6115381;23;20048;-81
2022/07/21 10:33:39;;;;;;;21.17;19.00;;;24.10;99.90;;;;;;6115336;23;20010;-80
2022/07/21 10:36:17;;;;;;;22.58;19.90;;;24.00;99.90;;;;;;6139335;23;20100;-82
2022/07/21 10:38:46;;;;;;;25.50;22.55;;;24.00;99.90;;;;;;6115614;23;20059;-80
2022/07/21 10:41:41;;;;;;;25.30;22.63;;;23.90;99.90;;;;;;6139894;23;20009;-83
2022/07/21 10:44:30;;;;;;;26.02;23.25;;;23.50;99.90;;;;;;6140003;23;20445;-81
2022/07/21 10:47:07;;;;;;;27.15;24.05;;;23.40;99.90;;;;;;6139945;23;20056;-80
2022/07/21 10:49:54;;;;;;;29.83;26.60;;;23.40;99.90;;;;;;6115304;23;20009;-81
2022/07/21 10:52:36;;;;;;;26.38;22.90;;;23.40;99.90;;;;;;6140173;23;20310;-81
2022/07/21 10:58:08;;;;;;;28.33;23.63;;;23.50;99.90;;;;;;6128207;23;20274;-83
2022/07/21 11:00:37;;;;;;;23.75;20.77;;;23.50;99.90;;;;;;6140052;23;20013;-81
2022/07/21 11:03:13;;;;;;;26.00;22.48;;;23.80;99.90;;;;;;6115684;23;20195;-83
2022/07/21 11:06:24;;;;;;;25.48;21.77;;;23.80;99.90;;;;;;6115578;23;20065;-82
2022/07/21 11:08:52;;;;;;;25.00;22.38;;;24.50;99.90;;;;;;6139826;23;20295;-83
2022/07/21 11:11:25;;;;;;;22.92;20.52;;;24.70;99.90;;;;;;6115642;23;20052;-82
2022/07/21 11:14:08;;;;;;;25.20;21.35;;;24.40;99.90;;;;;;6114899;23;20080;-81
2022/07/21 11:16:49;;;;;;;20.52;18.42;;;24.50;99.90;;;;;;6136347;23;20133;-81
2022/07/21 11:19:32;;;;;;;20.90;18.80;;;24.70;99.90;;;;;;6139348;23;20041;-82
2022/07/21 11:22:10;;;;;;;23.05;19.15;;;24.70;99.90;;;;;;6115475;23;20194;-82
2022/07/21 11:24:44;;;;;;;20.08;18.10;;;24.80;99.90;;;;;;6115050;23;20104;-82
2022/07/21 11:27:16;;;;;;;20.88;18.55;;;24.80;99.90;;;;;;6115640;23;20060;-83
2022/07/21 11:29:46;;;;;;;19.02;17.05;;;24.30;99.90;;;;;;6139602;23;20214;-85
2022/07/21 11:32:38;;;;;;;19.35;16.23;;;24.00;99.90;;;;;;6164121;23;20018;-82
2022/07/21 11:38:11;;;;;;;19.93;17.57;;;23.70;99.90;;;;;;6075365;23;20076;-81
2022/07/21 11:40:40;;;;;;;19.83;17.80;;;23.60;99.90;;;;;;6115442;23;20245;-82
2022/07/21 11:43:05;;;;;;;20.08;18.00;;;23.60;99.90;;;;;;6114813;23;20053;-80
2022/07/21 11:45:31;;;;;;;19.00;17.08;;;23.70;99.90;;;;;;6066850;23;20195;-81
2022/07/21 11:47:57;;;;;;;21.20;18.33;;;24.20;99.90;;;;;;6090379;23;20036;-81
2022/07/21 11:50:23;;;;;;;23.50;19.05;;;24.50;99.90;;;;;;6114266;23;20231;-81
2022/07/21 11:52:50;;;;;;;19.23;17.23;;;24.70;99.90;;;;;;6114201;23;20009;-82
2022/07/21 11:55:19;;;;;;;19.38;17.48;;;24.50;99.90;;;;;;6114557;23;20010;-79
2022/07/21 11:57:46;;;;;;;18.08;16.40;;;24.70;99.90;;;;;;6114841;23;20014;-80
2022/07/21 12:00:13;;;;;;;20.23;18.23;;;25.10;99.90;;;;;;6137334;23;20203;-79
2022/07/21 12:02:39;;;;;;;21.33;19.10;;;24.80;99.90;;;;;;6113649;23;20040;-80
2022/07/21 12:05:08;;;;;;;22.27;20.08;;;24.50;99.90;;;;;;6162804;23;20022;-79
2022/07/21 12:07:48;;;;;;;20.27;18.27;;;24.40;99.90;;;;;;6139682;23;20009;-82
2022/07/21 12:13:58;;;;;;;19.88;17.80;;;24.40;99.90;;;;;;5920513;24;20076;-77
2022/07/21 12:16:24;;;;;;;22.17;18.80;;;24.40;99.90;;;;;;6055248;23;20020;-81
2022/07/21 12:19:09;;;;;;;22.10;19.88;;;24.30;99.90;;;;;;6114039;23;20322;-81
2022/07/21 12:21:50;;;;;;;21.67;18.95;;;23.90;99.90;;;;;;6114118;23;20315;-79
2022/07/21 12:24:17;;;;;;;19.77;17.70;;;24.10;99.90;;;;;;6114178;23;20028;-80
2022/07/21 12:26:44;;;;;;;17.83;15.93;;;24.10;99.90;;;;;;6122163;23;20159;-79
2022/07/21 12:29:24;;;;;;;17.42;15.70;;;24.30;99.90;;;;;;6192671;23;20025;-80
2022/07/21 12:31:50;;;;;;;17.23;15.40;;;24.10;99.90;;;;;;6168139;23;20071;-81
2022/07/21 12:34:18;;;;;;;13.95;12.68;;;24.20;99.90;;;;;;6143962;23;20231;-80
2022/07/21 12:36:45;;;;;;;12.93;11.48;;;24.00;99.90;;;;;;6144372;23;20068;-80
2022/07/21 12:42:46;;;;;;;11.38;9.63;;;24.20;99.90;;;;;;6074231;23;20054;-80
2022/07/21 12:45:43;;;;;;;11.35;10.15;;;24.10;99.90;;;;;;6050335;23;20030;-80
2022/07/21 12:48:12;;;;;;;11.00;10.00;;;24.10;99.90;;;;;;6192734;23;20008;-83
2022/07/21 12:50:39;;;;;;;10.10;9.13;;;24.30;99.90;;;;;;6168249;23;20031;-78
2022/07/21 12:53:09;;;;;;;9.93;9.02;;;24.40;99.90;;;;;;6143311;23;20357;-78
2022/07/21 12:55:36;;;;;;;9.57;8.73;;;24.30;99.90;;;;;;6143866;23;20009;-78
2022/07/21 12:58:01;;;;;;;9.13;8.25;;;24.30;99.90;;;;;;6143317;23;20044;-78
2022/07/21 13:00:27;;;;;;;9.98;8.27;;;24.60;99.90;;;;;;6119020;23;20009;-81
2022/07/21 13:02:57;;;;;;;9.43;8.43;;;24.60;99.90;;;;;;6143043;23;20037;-82
2022/07/21 13:05:24;;;;;;;9.45;8.55;;;25.00;99.90;;;;;;6143821;23;20009;-82
2022/07/21 13:07:51;;;;;;;8.80;8.00;;;24.50;99.90;;;;;;6168789;23;20064;-82